Portada
METAR-TAF:

METAR-TAF

Aeropuertos :

Colmenar Viejo, España

latitud: 40-39N, longitud: 003-44W, altitud: -999 m

Observación

El informe se hizo hace 38 minutos, a las 07:00 UTC
Viento 3 kt del noreste
Temperatura 22°C
Humedad 46%
Presión 1018 hPa
Visibilidad 10 km o más
sin nubes por debajo de 1500 m y sin presencia de cumulonimbus.

METAR: LECV 140700Z 05003KT CAVOK 22/10 Q1018

Hora: 09:38 (07:38 UTC)

Pronóstico

El informe se hizo hace 2 horas y 38 minutos, a las 05:00 UTC
Pronóstico válido del 14 a las 06 UTC al 15 a las 06 UTC
Viento 5 kt con dirección variable
Visibilidad 10 km o más
sin nubes por debajo de 1500 m y sin presencia de cumulonimbus.
Probabilidad 40% :
Temporalmente
del 14 a las 11 UTC al 14 a las 21 UTC
Viento 10 kt del sur-suroeste

TAF: LECV 140500Z 1406/1506 VRB05KT CAVOK TX27/1416Z TN17/1406Z PROB40 TEMPO 1411/1421 21010KT

Observaciones y pronósticos meteorológicos de más de 4000 aeropuertos (mensajes METAR y TAF).

Los puntos amarillos y rojos representan las estaciones disponibles.

Ponga el ratón en el punto deseado para ver el nombre de la estación.

Haga clic para ver las observaciones y los pronósticos meteorológicos.

Para cambiar el mapa : haga clic en los botones verdes con una cruz de color negro para hacer un zoom, en el botón verde con un guión para alejar o en las flechas verdes para mapas adyacentes.


METAR-TAF: